createdAt,value
2017-07-05T18:09:56.730Z,3.85
2017-07-05T18:12:26.102Z,2.70
2017-07-05T18:20:27.488Z,2.60
2017-07-05T18:24:33.082Z,2.70
2017-07-05T18:27:01.256Z,2.50
2017-07-05T18:29:29.424Z,2.37
2017-07-05T18:31:57.782Z,2.50
2017-07-05T18:34:24.989Z,2.60
2017-07-05T18:36:52.194Z,2.40
2017-07-05T18:39:19.397Z,2.40
2017-07-05T18:41:46.473Z,2.63
2017-07-05T18:44:14.251Z,2.37
2017-07-05T18:46:41.467Z,2.47
2017-07-05T18:49:08.674Z,2.30
2017-07-05T18:51:35.903Z,3.00
2017-07-05T18:54:03.142Z,2.60
2017-07-05T18:56:31.294Z,2.60
2017-07-05T18:58:58.511Z,2.87
2017-07-05T19:01:25.742Z,2.30
2017-07-05T19:03:52.956Z,2.70
2017-07-05T19:06:20.195Z,2.40
2017-07-05T19:08:47.415Z,2.40
2017-07-05T19:11:14.637Z,2.70
2017-07-05T19:13:42.798Z,2.33
2017-07-05T19:16:10.121Z,2.37
2017-07-05T19:18:37.403Z,3.40
2017-07-05T19:21:04.617Z,2.77
2017-07-05T19:23:31.837Z,2.67
2017-07-05T19:25:59.054Z,2.70
2017-07-05T19:28:26.259Z,2.83
2017-07-05T19:30:53.489Z,2.90
2017-07-05T19:33:20.705Z,2.47
2017-07-05T19:35:47.918Z,2.53
2017-07-05T19:38:15.131Z,2.47
2017-07-05T19:40:43.270Z,2.70
2017-07-05T19:43:10.530Z,3.07
2017-07-05T19:45:37.746Z,3.20
2017-07-05T19:48:04.958Z,2.93
2017-07-05T19:50:32.174Z,3.40
2017-07-05T19:52:59.380Z,2.60
2017-07-05T19:55:26.632Z,3.37
2017-07-05T19:57:53.846Z,3.00
2017-07-05T20:00:21.062Z,2.93
2017-07-05T20:02:48.275Z,2.53
2017-07-05T20:05:15.489Z,2.90
2017-07-05T20:07:42.772Z,3.50
2017-07-05T20:10:10.122Z,2.50
2017-07-05T20:12:37.329Z,2.53
2017-07-05T20:15:04.541Z,2.90
2017-07-05T20:17:31.745Z,2.83
2017-07-05T20:19:58.971Z,2.70
2017-07-05T20:22:26.185Z,2.90
2017-07-05T20:24:53.390Z,3.10
2017-07-05T20:27:20.601Z,3.40
2017-07-05T20:29:47.803Z,3.10
2017-07-05T20:32:15.029Z,2.77
2017-07-05T20:34:42.236Z,3.17
2017-07-05T20:37:09.445Z,3.07
2017-07-05T20:39:36.645Z,2.90
2017-07-05T20:42:03.857Z,2.90
2017-07-05T20:44:31.415Z,2.80
2017-07-05T20:46:58.674Z,2.60
2017-07-05T20:49:25.936Z,2.90
2017-07-05T20:51:54.166Z,2.97
2017-07-05T20:54:21.419Z,3.37
2017-07-05T20:56:48.715Z,2.90
2017-07-05T20:59:15.976Z,2.70
2017-07-05T21:01:44.160Z,3.10
2017-07-05T21:04:11.427Z,3.07
2017-07-05T21:06:38.676Z,3.40
2017-07-05T21:09:05.948Z,3.33
2017-07-05T21:11:33.198Z,2.83
2017-07-05T21:14:00.450Z,3.00
2017-07-05T21:16:27.715Z,3.00
2017-07-05T21:18:54.971Z,3.20
2017-07-05T21:21:22.242Z,3.17
2017-07-05T21:23:49.495Z,3.10
2017-07-05T21:26:16.746Z,3.60
2017-07-05T21:28:44.021Z,3.20
2017-07-05T21:31:11.274Z,3.40
2017-07-05T21:33:39.380Z,2.90
2017-07-05T21:36:06.639Z,3.57
2017-07-05T21:38:34.175Z,3.60
2017-07-05T21:41:01.428Z,3.40
2017-07-05T21:43:29.660Z,3.37
2017-07-05T21:45:56.941Z,3.60
2017-07-05T21:48:24.184Z,3.57
2017-07-05T21:50:51.719Z,3.35
2017-07-05T21:53:19.253Z,3.15
2017-07-05T21:55:46.503Z,4.13
2017-07-05T21:58:13.781Z,4.00
2017-07-05T22:00:41.030Z,3.50
2017-07-05T22:03:08.279Z,3.90
2017-07-05T22:05:35.540Z,3.50
2017-07-05T22:08:03.091Z,3.72
2017-07-05T22:10:30.655Z,3.78
2017-07-05T22:12:58.209Z,4.30
2017-07-05T22:15:25.565Z,3.72
2017-07-05T22:17:53.099Z,3.50
2017-07-05T22:20:20.627Z,4.25
2017-07-05T22:22:48.191Z,4.00
2017-07-05T22:25:15.741Z,3.53
2017-07-05T22:27:43.282Z,3.17
2017-07-05T22:30:10.835Z,3.28
2017-07-05T22:32:38.383Z,3.65
2017-07-05T22:35:05.935Z,4.95
2017-07-05T22:37:33.468Z,3.65
2017-07-05T22:40:00.994Z,3.87
2017-07-05T22:42:28.525Z,3.60
2017-07-05T22:44:56.062Z,3.60
2017-07-05T22:47:23.636Z,4.37
2017-07-05T22:49:51.179Z,3.90
2017-07-05T22:52:18.735Z,3.95
2017-07-05T22:54:46.000Z,3.87
2017-07-05T22:57:13.531Z,3.55
2017-07-05T22:59:41.084Z,3.20
2017-07-05T23:02:08.325Z,3.67
2017-07-05T23:04:35.855Z,4.00
2017-07-05T23:07:03.395Z,4.35
2017-07-05T23:09:30.937Z,4.18
2017-07-05T23:11:58.495Z,3.67
2017-07-05T23:14:25.743Z,3.43
2017-07-05T23:16:52.995Z,3.77
2017-07-05T23:19:20.247Z,4.13
2017-07-05T23:21:47.465Z,4.20
2017-07-05T23:24:14.985Z,4.18
2017-07-05T23:26:42.517Z,3.85
2017-07-05T23:29:10.010Z,3.95
2017-07-05T23:31:38.145Z,3.50
2017-07-05T23:34:05.346Z,3.70
2017-07-05T23:36:32.878Z,4.20
2017-07-05T23:39:00.096Z,4.37
2017-07-05T23:41:27.586Z,4.72
2017-07-05T23:43:55.110Z,3.97
2017-07-05T23:46:22.605Z,4.40
2017-07-05T23:48:50.129Z,4.43
2017-07-05T23:51:17.715Z,4.12
2017-07-05T23:53:45.232Z,4.00
2017-07-05T23:56:12.730Z,4.62
2017-07-05T23:58:40.225Z,3.85
